Time;durP1;ratioP1;P1;durP2;ratioP2;P2;SDS_P1;SDS_P2;PMS_P1;PMS_P2;Temp;Humidity;BMP_temperature;BMP_pressure;BME280_temperature;BME280_humidity;BME280_pressure;Samples;Min_cycle;Max_cycle;Signal;HPM_P1;HPM_P2
2023/05/18 00:02:00;;;;;;;14.70;3.03;;;8.90;99.90;;;;;;4955011;28;20451;-74
2023/05/18 00:04:27;;;;;;;10.00;2.72;;;8.90;99.90;;;;;;4949171;28;20024;-74
2023/05/18 00:06:57;;;;;;;11.93;2.97;;;8.90;99.90;;;;;;4951432;28;20019;-75
2023/05/18 00:09:24;;;;;;;12.07;3.22;;;8.90;99.90;;;;;;4954499;28;20380;-74
2023/05/18 00:11:50;;;;;;;9.52;2.78;;;8.80;99.90;;;;;;4950272;29;20422;-75
2023/05/18 00:14:16;;;;;;;9.07;2.95;;;8.80;99.90;;;;;;4954143;29;20043;-74
2023/05/18 00:16:42;;;;;;;8.77;2.97;;;8.80;99.90;;;;;;4954858;28;20069;-75
2023/05/18 00:19:07;;;;;;;11.75;3.03;;;8.70;99.90;;;;;;4952228;29;20024;-74
2023/05/18 00:21:34;;;;;;;8.57;3.25;;;8.80;99.90;;;;;;4953974;29;20043;-74
2023/05/18 00:24:00;;;;;;;13.55;3.30;;;8.80;99.90;;;;;;4951269;28;20055;-74
2023/05/18 00:26:26;;;;;;;12.93;3.28;;;8.80;99.90;;;;;;4954892;28;20026;-75
2023/05/18 00:28:52;;;;;;;10.07;3.03;;;8.80;99.90;;;;;;4949210;29;20122;-75
2023/05/18 00:31:17;;;;;;;12.70;3.67;;;8.70;99.90;;;;;;4947400;28;20024;-75
2023/05/18 00:33:46;;;;;;;13.05;3.20;;;8.70;99.90;;;;;;4954679;29;20032;-74
2023/05/18 00:36:11;;;;;;;11.57;3.60;;;8.80;99.90;;;;;;4950642;29;20032;-74
2023/05/18 00:38:37;;;;;;;12.63;3.50;;;8.70;99.90;;;;;;4944892;29;20050;-74
2023/05/18 00:41:02;;;;;;;10.93;3.15;;;8.80;99.90;;;;;;4954254;28;20367;-75
2023/05/18 00:43:28;;;;;;;10.73;3.50;;;8.80;99.90;;;;;;4954706;28;20042;-74
2023/05/18 00:45:53;;;;;;;9.65;3.67;;;8.80;99.90;;;;;;4946935;29;20118;-74
2023/05/18 00:48:19;;;;;;;11.65;3.45;;;8.70;99.90;;;;;;4945644;28;20039;-75
2023/05/18 00:50:45;;;;;;;11.38;3.38;;;8.70;99.90;;;;;;4954098;29;20025;-74
2023/05/18 00:53:11;;;;;;;13.52;3.45;;;8.70;99.90;;;;;;4945062;28;20075;-74
2023/05/18 00:55:37;;;;;;;10.32;3.47;;;8.70;99.90;;;;;;4949857;29;20079;-74
2023/05/18 00:58:04;;;;;;;9.93;3.47;;;8.70;99.90;;;;;;4935875;29;20028;-74
2023/05/18 01:00:30;;;;;;;16.08;3.83;;;8.60;99.90;;;;;;4951445;29;20172;-74
2023/05/18 01:02:56;;;;;;;15.25;3.78;;;8.60;99.90;;;;;;4954208;28;20023;-75
2023/05/18 01:05:22;;;;;;;9.45;3.50;;;8.60;99.90;;;;;;4950438;29;20504;-74
2023/05/18 01:07:49;;;;;;;11.45;3.53;;;8.60;99.90;;;;;;4952418;29;20042;-75
2023/05/18 01:10:17;;;;;;;10.45;3.42;;;8.60;99.90;;;;;;4954199;28;20050;-74
2023/05/18 01:12:56;;;;;;;9.80;3.10;;;8.60;99.90;;;;;;4940177;28;20497;-74
2023/05/18 01:15:33;;;;;;;10.48;3.53;;;8.60;99.90;;;;;;4949256;29;20067;-74
2023/05/18 01:18:15;;;;;;;8.55;3.40;;;8.60;99.90;;;;;;4947378;29;20082;-74
2023/05/18 01:21:18;;;;;;;15.98;4.05;;;8.50;99.90;;;;;;4948252;29;20097;-74
2023/05/18 01:24:14;;;;;;;14.43;4.07;;;8.50;99.90;;;;;;4938577;29;20152;-74
2023/05/18 01:26:44;;;;;;;10.65;3.10;;;8.50;99.90;;;;;;4952150;29;20359;-74
2023/05/18 01:29:12;;;;;;;12.75;3.65;;;8.50;99.90;;;;;;4941186;28;20027;-75
2023/05/18 01:31:38;;;;;;;13.10;3.65;;;8.50;99.90;;;;;;4935748;29;20016;-74
2023/05/18 01:34:05;;;;;;;12.20;3.33;;;8.50;99.90;;;;;;4934451;29;20031;-74
2023/05/18 01:36:31;;;;;;;12.65;3.83;;;8.50;99.90;;;;;;4948749;29;20374;-74
2023/05/18 01:39:00;;;;;;;12.93;3.47;;;8.40;99.90;;;;;;4953042;28;20496;-74
2023/05/18 01:41:29;;;;;;;9.02;3.28;;;8.50;99.90;;;;;;4953302;28;20475;-74
2023/05/18 01:44:31;;;;;;;10.95;3.50;;;8.50;99.90;;;;;;4953382;28;20554;-74
2023/05/18 01:47:00;;;;;;;11.50;3.25;;;8.50;99.90;;;;;;4940257;29;20051;-74
2023/05/18 01:50:07;;;;;;;15.10;3.60;;;8.40;99.90;;;;;;4947897;28;20075;-74
2023/05/18 01:52:36;;;;;;;10.15;3.45;;;8.40;99.90;;;;;;4929534;29;20380;-74
2023/05/18 01:55:04;;;;;;;10.88;3.42;;;8.40;99.90;;;;;;4950688;29;20068;-74
2023/05/18 01:57:31;;;;;;;10.75;3.40;;;8.40;99.90;;;;;;4947529;28;20023;-74
2023/05/18 02:00:00;;;;;;;8.48;3.42;;;8.30;99.90;;;;;;4948925;29;20054;-75
2023/05/18 02:02:27;;;;;;;10.52;3.40;;;8.40;99.90;;;;;;4933981;29;20475;-75
2023/05/18 02:04:53;;;;;;;6.47;3.20;;;8.40;99.90;;;;;;4947518;29;20093;-75
2023/05/18 02:07:18;;;;;;;8.23;3.08;;;8.30;99.90;;;;;;4953066;29;20035;-75
2023/05/18 02:09:44;;;;;;;10.32;3.33;;;8.30;99.90;;;;;;4951584;28;20131;-74
2023/05/18 02:12:10;;;;;;;10.32;3.25;;;8.30;99.90;;;;;;4949183;29;20119;-74
2023/05/18 02:14:36;;;;;;;9.85;3.42;;;8.30;99.90;;;;;;4953000;29;20687;-75
2023/05/18 02:17:02;;;;;;;13.35;3.60;;;8.30;99.90;;;;;;4950771;29;20031;-74
2023/05/18 02:19:29;;;;;;;9.95;3.33;;;8.20;99.90;;;;;;4951820;29;20434;-75
2023/05/18 02:21:56;;;;;;;8.68;3.47;;;8.20;99.90;;;;;;4948906;29;20467;-74
2023/05/18 02:24:23;;;;;;;12.93;3.60;;;8.20;99.90;;;;;;4947726;28;20027;-75
2023/05/18 02:26:50;;;;;;;13.00;3.40;;;8.20;99.90;;;;;;4946863;29;20019;-75
2023/05/18 02:29:15;;;;;;;7.45;3.33;;;8.20;99.90;;;;;;4952728;28;20036;-75
2023/05/18 02:31:41;;;;;;;11.48;3.47;;;8.10;99.90;;;;;;4945161;29;20034;-74
2023/05/18 02:34:07;;;;;;;9.07;3.60;;;8.10;99.90;;;;;;4948474;29;20079;-74
2023/05/18 02:36:38;;;;;;;12.30;3.53;;;8.10;99.90;;;;;;4950615;29;20107;-74
2023/05/18 02:39:05;;;;;;;10.00;3.42;;;8.00;99.90;;;;;;4952724;29;20481;-75
2023/05/18 02:41:31;;;;;;;13.38;3.22;;;8.00;99.90;;;;;;4954952;28;20375;-74
2023/05/18 02:43:57;;;;;;;11.38;3.95;;;8.00;99.90;;;;;;4956633;28;20713;-74
2023/05/18 02:46:22;;;;;;;11.00;3.30;;;8.00;99.90;;;;;;4955564;29;20098;-75
2023/05/18 02:48:48;;;;;;;10.68;3.47;;;8.00;99.90;;;;;;4956387;29;20387;-75
2023/05/18 02:51:14;;;;;;;11.35;3.28;;;8.00;99.90;;;;;;4948352;28;20041;-74
2023/05/18 02:53:39;;;;;;;8.95;3.00;;;8.00;99.90;;;;;;4946953;29;20023;-75
2023/05/18 02:56:05;;;;;;;12.20;3.33;;;7.90;99.90;;;;;;4956614;28;20019;-74
2023/05/18 02:58:31;;;;;;;10.40;3.20;;;7.90;99.90;;;;;;4954814;29;20072;-74
2023/05/18 03:00:58;;;;;;;7.00;3.00;;;7.90;99.90;;;;;;4956743;28;20115;-75
2023/05/18 03:03:24;;;;;;;11.93;3.38;;;7.90;99.90;;;;;;4954867;28;20079;-74
2023/05/18 03:05:53;;;;;;;9.05;3.17;;;7.90;99.90;;;;;;4954368;29;20129;-75
2023/05/18 03:08:21;;;;;;;11.82;3.58;;;7.80;99.90;;;;;;4950033;29;20560;-75
2023/05/18 03:10:47;;;;;;;14.35;3.50;;;7.80;99.90;;;;;;4949706;29;20562;-75
2023/05/18 03:13:13;;;;;;;11.88;3.45;;;7.80;99.90;;;;;;4937254;29;20391;-75
2023/05/18 03:15:39;;;;;;;14.88;3.33;;;7.80;99.90;;;;;;4951218;29;20053;-75
2023/05/18 03:18:05;;;;;;;10.95;3.20;;;7.70;99.90;;;;;;4954558;28;20024;-74
2023/05/18 03:20:31;;;;;;;5.15;2.97;;;7.70;99.90;;;;;;4956088;29;20027;-75
2023/05/18 03:22:57;;;;;;;9.55;2.92;;;7.70;99.90;;;;;;4956153;29;20375;-75
2023/05/18 03:25:24;;;;;;;13.43;3.17;;;7.80;99.90;;;;;;4949612;29;20117;-74
2023/05/18 03:27:53;;;;;;;12.25;3.55;;;7.80;99.90;;;;;;4953279;29;20034;-75
2023/05/18 03:30:19;;;;;;;9.43;3.03;;;7.70;99.90;;;;;;4953425;29;20102;-74
2023/05/18 03:32:47;;;;;;;9.68;3.13;;;7.70;99.90;;;;;;4938203;28;20024;-75
2023/05/18 03:35:14;;;;;;;9.05;3.22;;;7.70;99.90;;;;;;4955648;29;20094;-75
2023/05/18 03:37:40;;;;;;;5.80;2.92;;;7.70;99.90;;;;;;4955798;28;20028;-75
2023/05/18 03:40:14;;;;;;;9.73;3.20;;;7.70;99.90;;;;;;4955596;28;20038;-74
2023/05/18 03:42:41;;;;;;;7.93;3.17;;;7.70;99.90;;;;;;4954267;29;20067;-75
2023/05/18 03:45:08;;;;;;;13.73;3.40;;;7.70;99.90;;;;;;4955333;28;20047;-74
2023/05/18 03:47:34;;;;;;;12.10;3.50;;;7.70;99.90;;;;;;4955447;28;20506;-75
2023/05/18 03:50:00;;;;;;;10.63;3.05;;;7.70;99.90;;;;;;4947587;29;20194;-75
2023/05/18 03:52:28;;;;;;;9.48;2.88;;;7.70;99.90;;;;;;4950158;28;20788;-74
2023/05/18 03:54:54;;;;;;;12.30;3.63;;;7.70;99.90;;;;;;4943573;29;20020;-74
2023/05/18 03:57:20;;;;;;;11.52;3.03;;;7.70;99.90;;;;;;4956220;29;20046;-74
2023/05/18 03:59:45;;;;;;;9.95;2.80;;;7.60;99.90;;;;;;4945081;28;20266;-74
2023/05/18 04:02:11;;;;;;;10.82;3.00;;;7.70;99.90;;;;;;4944286;29;20461;-75
2023/05/18 04:04:40;;;;;;;11.48;2.80;;;7.60;99.90;;;;;;4956168;28;20019;-75
2023/05/18 04:07:07;;;;;;;7.40;2.80;;;7.60;99.90;;;;;;4954296;29;20020;-75
2023/05/18 04:09:34;;;;;;;7.97;2.60;;;7.60;99.90;;;;;;4954906;29;20027;-74
2023/05/18 04:12:01;;;;;;;9.98;3.00;;;7.60;99.90;;;;;;4955431;28;20023;-74
2023/05/18 04:14:27;;;;;;;11.10;3.45;;;7.60;99.90;;;;;;4955054;28;20116;-74
2023/05/18 04:16:53;;;;;;;10.68;2.95;;;7.60;99.90;;;;;;4952818;29;20023;-75
2023/05/18 04:19:20;;;;;;;12.60;3.45;;;7.60;99.90;;;;;;4952078;29;20428;-74
2023/05/18 04:21:47;;;;;;;13.60;3.22;;;7.60;99.90;;;;;;4955041;29;20023;-74
2023/05/18 04:24:13;;;;;;;14.98;3.53;;;7.60;99.90;;;;;;4955309;28;20110;-74
2023/05/18 04:26:41;;;;;;;10.95;3.15;;;7.60;99.90;;;;;;4954165;29;20118;-75
2023/05/18 04:29:09;;;;;;;11.77;3.47;;;7.60;99.90;;;;;;4948746;29;20399;-75
2023/05/18 04:31:35;;;;;;;10.00;3.47;;;7.70;99.90;;;;;;4944281;29;20383;-77
2023/05/18 04:34:01;;;;;;;13.27;3.35;;;7.70;99.90;;;;;;4947833;29;20066;-75
2023/05/18 04:36:29;;;;;;;11.30;3.50;;;7.70;99.90;;;;;;4952521;29;20062;-75
2023/05/18 04:39:02;;;;;;;14.23;4.13;;;7.70;99.90;;;;;;4954894;28;20478;-75
2023/05/18 04:41:28;;;;;;;16.95;3.72;;;7.70;99.90;;;;;;4952512;29;20078;-75
2023/05/18 04:43:53;;;;;;;8.13;3.22;;;7.70;99.90;;;;;;4953126;29;20019;-75
2023/05/18 04:46:22;;;;;;;8.30;3.10;;;7.80;99.90;;;;;;4954501;28;20485;-75
2023/05/18 04:48:48;;;;;;;9.43;3.45;;;7.80;99.90;;;;;;4951669;29;20035;-75
2023/05/18 04:51:16;;;;;;;12.05;3.72;;;7.80;99.90;;;;;;4958381;28;20106;-75
2023/05/18 04:53:44;;;;;;;10.88;3.13;;;7.80;99.90;;;;;;4950711;29;20026;-75
2023/05/18 04:56:12;;;;;;;9.52;3.30;;;7.90;99.90;;;;;;4952996;29;20023;-75
2023/05/18 04:58:38;;;;;;;9.63;3.20;;;7.90;99.90;;;;;;4943109;28;20159;-75
2023/05/18 05:01:04;;;;;;;10.52;3.00;;;7.90;99.90;;;;;;4948864;29;20471;-75
2023/05/18 05:03:29;;;;;;;7.40;2.90;;;7.90;99.90;;;;;;4949914;28;20399;-75
2023/05/18 05:05:55;;;;;;;10.60;3.25;;;7.90;99.90;;;;;;4946224;29;20163;-75
2023/05/18 05:08:20;;;;;;;8.13;3.42;;;8.00;99.90;;;;;;4953675;28;20207;-75
2023/05/18 05:10:46;;;;;;;8.57;3.35;;;8.00;99.90;;;;;;4950628;28;20035;-75
2023/05/18 05:13:12;;;;;;;12.38;3.42;;;8.00;99.90;;;;;;4943921;29;20030;-75
2023/05/18 05:15:37;;;;;;;12.57;3.78;;;8.10;99.90;;;;;;4946336;29;20054;-75
2023/05/18 05:18:03;;;;;;;10.88;3.35;;;8.10;99.90;;;;;;4945439;29;20055;-75
2023/05/18 05:20:28;;;;;;;10.93;3.42;;;8.10;99.90;;;;;;4943427;28;20471;-75
2023/05/18 05:22:54;;;;;;;10.55;3.55;;;8.10;99.90;;;;;;4939930;29;20509;-76
2023/05/18 05:25:20;;;;;;;8.25;3.42;;;8.20;99.90;;;;;;4953866;29;20102;-76
2023/05/18 05:27:46;;;;;;;8.30;2.88;;;8.20;99.90;;;;;;4953932;28;20031;-76
2023/05/18 05:30:11;;;;;;;12.90;3.47;;;8.20;99.90;;;;;;4953021;29;20042;-75
2023/05/18 05:32:37;;;;;;;8.38;3.08;;;8.20;99.90;;;;;;4951685;29;20028;-76
2023/05/18 05:35:03;;;;;;;10.20;3.50;;;8.30;99.90;;;;;;4954147;29;20027;-75
2023/05/18 05:37:29;;;;;;;10.80;2.97;;;8.30;99.90;;;;;;4952475;29;20051;-76
2023/05/18 05:39:55;;;;;;;11.57;3.92;;;8.40;99.90;;;;;;4952302;29;20027;-76
2023/05/18 05:42:21;;;;;;;12.35;4.03;;;8.40;99.90;;;;;;4949831;28;20451;-76
2023/05/18 05:44:46;;;;;;;9.57;3.92;;;8.40;99.90;;;;;;4952281;29;20027;-76
2023/05/18 05:47:12;;;;;;;11.52;3.58;;;8.40;99.90;;;;;;4937220;28;20063;-76
2023/05/18 05:49:38;;;;;;;12.70;3.42;;;8.50;99.90;;;;;;4935414;29;20444;-76
2023/05/18 05:52:03;;;;;;;12.68;2.97;;;8.50;99.90;;;;;;4952188;29;20023;-77
2023/05/18 05:54:30;;;;;;;10.70;3.40;;;8.50;99.90;;;;;;4953676;28;20023;-76
2023/05/18 05:56:55;;;;;;;9.45;2.83;;;8.60;99.90;;;;;;4950387;29;20019;-76
2023/05/18 05:59:21;;;;;;;9.82;3.30;;;8.60;99.90;;;;;;4953746;28;20062;-76
2023/05/18 06:01:47;;;;;;;13.43;3.58;;;8.60;99.90;;;;;;4953883;29;20039;-76
2023/05/18 06:04:14;;;;;;;12.95;3.45;;;8.70;99.90;;;;;;4948366;29;20054;-76
2023/05/18 06:06:42;;;;;;;11.68;3.22;;;8.70;99.90;;;;;;4953882;28;20107;-76
2023/05/18 06:09:08;;;;;;;14.43;3.28;;;8.80;99.90;;;;;;4953486;28;20485;-75
2023/05/18 06:11:34;;;;;;;11.88;3.13;;;8.80;99.90;;;;;;4953715;28;20483;-76
2023/05/18 06:14:00;;;;;;;11.60;3.17;;;8.80;99.90;;;;;;4953492;28;20038;-76
2023/05/18 06:16:25;;;;;;;9.25;3.40;;;8.90;99.90;;;;;;4956291;28;20023;-76
2023/05/18 06:18:51;;;;;;;11.70;3.33;;;8.90;99.90;;;;;;4951947;29;20066;-76
2023/05/18 06:21:17;;;;;;;9.98;2.75;;;8.90;99.90;;;;;;4953640;28;20081;-76
2023/05/18 06:23:43;;;;;;;7.68;3.17;;;9.00;99.90;;;;;;4959594;29;20382;-76
2023/05/18 06:26:09;;;;;;;10.82;3.35;;;9.00;99.90;;;;;;4950840;28;20027;-76
2023/05/18 06:28:35;;;;;;;12.50;3.42;;;9.00;99.90;;;;;;4953781;28;20559;-76
2023/05/18 06:31:01;;;;;;;12.15;3.22;;;9.10;99.90;;;;;;4953775;29;20035;-76
2023/05/18 06:33:27;;;;;;;10.88;3.10;;;9.10;99.90;;;;;;4947372;28;20797;-76
2023/05/18 06:35:52;;;;;;;15.00;3.35;;;9.20;99.90;;;;;;4959282;28;20030;-76
2023/05/18 06:38:18;;;;;;;15.00;3.25;;;9.20;99.90;;;;;;4959500;28;20062;-76
2023/05/18 06:40:44;;;;;;;8.02;2.58;;;9.30;99.90;;;;;;4957370;28;20383;-76
2023/05/18 06:43:10;;;;;;;14.07;3.20;;;9.40;99.90;;;;;;4957645;29;20019;-76
2023/05/18 06:45:35;;;;;;;14.38;3.40;;;9.50;99.90;;;;;;4954519;28;20060;-76
2023/05/18 06:48:01;;;;;;;14.90;3.20;;;9.50;99.90;;;;;;4959069;28;20434;-76
2023/05/18 06:50:26;;;;;;;10.07;3.33;;;9.60;99.90;;;;;;4953928;28;20490;-76
2023/05/18 06:52:52;;;;;;;9.35;2.72;;;9.60;99.90;;;;;;4952868;29;20078;-77
2023/05/18 06:55:18;;;;;;;10.82;2.90;;;9.70;99.90;;;;;;4946308;28;20023;-76
2023/05/18 06:57:43;;;;;;;15.27;3.50;;;9.90;99.90;;;;;;4959258;29;20023;-76
2023/05/18 07:00:11;;;;;;;11.02;3.35;;;10.00;99.90;;;;;;4958234;28;20738;-76
2023/05/18 07:02:38;;;;;;;11.23;3.50;;;10.10;99.90;;;;;;4956333;28;20046;-76
2023/05/18 07:05:04;;;;;;;10.63;2.60;;;10.20;99.90;;;;;;4954631;28;20024;-76
2023/05/18 07:07:30;;;;;;;14.68;2.95;;;10.40;99.90;;;;;;4953582;29;20723;-76
2023/05/18 07:09:57;;;;;;;11.27;2.80;;;10.50;99.90;;;;;;4954306;29;20111;-76
2023/05/18 07:12:25;;;;;;;10.13;2.92;;;10.60;99.90;;;;;;4958297;28;20081;-76
2023/05/18 07:14:50;;;;;;;14.02;3.35;;;10.70;99.90;;;;;;4959458;28;20028;-76
2023/05/18 07:17:16;;;;;;;12.55;3.05;;;10.70;99.90;;;;;;4954942;28;20386;-76
2023/05/18 07:19:42;;;;;;;10.68;2.90;;;10.80;99.90;;;;;;4958835;29;20081;-76
2023/05/18 07:22:07;;;;;;;10.88;2.70;;;10.90;99.90;;;;;;4959038;28;20027;-76
2023/05/18 07:24:33;;;;;;;11.38;2.53;;;11.00;99.90;;;;;;4957128;28;20510;-77
2023/05/18 07:26:59;;;;;;;11.00;2.67;;;11.00;99.90;;;;;;4947176;28;20031;-76
2023/05/18 07:29:25;;;;;;;11.52;3.00;;;11.10;99.90;;;;;;4955763;28;20031;-77
2023/05/18 07:31:50;;;;;;;14.05;2.88;;;11.20;99.90;;;;;;4947178;28;20055;-76
2023/05/18 07:34:16;;;;;;;13.10;2.72;;;11.30;99.90;;;;;;4950261;29;20522;-76
2023/05/18 07:36:42;;;;;;;11.93;2.47;;;11.40;99.90;;;;;;4943931;28;20070;-75
2023/05/18 07:39:07;;;;;;;13.38;2.90;;;11.60;99.90;;;;;;4954600;29;20031;-76
2023/05/18 07:41:33;;;;;;;9.55;2.53;;;11.70;99.90;;;;;;4954424;28;20122;-76
2023/05/18 07:43:59;;;;;;;12.18;2.78;;;11.70;99.90;;;;;;4953496;29;20450;-76
2023/05/18 07:46:25;;;;;;;11.90;2.75;;;11.80;99.90;;;;;;4955800;29;20086;-76
2023/05/18 07:48:50;;;;;;;14.98;2.95;;;11.80;99.90;;;;;;4954584;29;20043;-74
2023/05/18 07:51:16;;;;;;;11.20;2.58;;;11.90;99.90;;;;;;4950886;29;20390;-76
2023/05/18 07:53:42;;;;;;;12.13;2.70;;;11.90;99.90;;;;;;4945361;28;20526;-75
2023/05/18 07:56:08;;;;;;;12.98;2.72;;;12.00;99.90;;;;;;4939770;29;20032;-75
2023/05/18 07:58:36;;;;;;;10.70;2.65;;;12.10;99.90;;;;;;4941127;29;20027;-75
2023/05/18 08:01:02;;;;;;;11.57;2.60;;;12.20;99.90;;;;;;4949683;29;20078;-75
2023/05/18 08:03:28;;;;;;;11.80;2.70;;;12.30;99.90;;;;;;4954273;29;20483;-75
2023/05/18 08:05:53;;;;;;;10.15;2.67;;;12.40;99.90;;;;;;4953652;29;20035;-75
2023/05/18 08:08:19;;;;;;;9.75;2.70;;;12.40;99.90;;;;;;4949808;29;20019;-75
2023/05/18 08:10:45;;;;;;;8.38;2.85;;;12.50;99.90;;;;;;4947019;28;20093;-75
2023/05/18 08:13:11;;;;;;;11.40;2.75;;;12.50;99.90;;;;;;4950781;28;20035;-75
2023/05/18 08:15:39;;;;;;;11.70;2.90;;;12.50;99.90;;;;;;4950036;28;20414;-75
2023/05/18 08:18:05;;;;;;;10.02;2.65;;;12.50;99.90;;;;;;4955067;29;20530;-75
2023/05/18 08:20:30;;;;;;;12.77;2.85;;;12.50;99.90;;;;;;4948887;29;20102;-75
2023/05/18 08:22:56;;;;;;;12.55;2.50;;;12.50;99.90;;;;;;4954790;28;20019;-75
2023/05/18 08:25:22;;;;;;;9.32;2.83;;;12.50;99.90;;;;;;4952880;29;20406;-76
2023/05/18 08:27:48;;;;;;;14.38;2.80;;;12.50;99.90;;;;;;4951541;28;20039;-75
2023/05/18 08:30:14;;;;;;;9.65;2.72;;;12.50;99.90;;;;;;4950783;28;20023;-75
2023/05/18 08:32:40;;;;;;;10.85;2.78;;;12.60;99.90;;;;;;4954604;28;20027;-75
2023/05/18 08:35:07;;;;;;;16.58;2.80;;;12.70;99.90;;;;;;4951770;29;20020;-76
2023/05/18 08:37:33;;;;;;;10.65;2.40;;;12.90;99.90;;;;;;4940301;29;20055;-75
2023/05/18 08:39:59;;;;;;;11.63;2.67;;;13.00;99.90;;;;;;4953179;28;20053;-75
2023/05/18 08:42:57;;;;;;;12.43;2.67;;;13.10;99.90;;;;;;4949793;29;20027;-75
2023/05/18 08:45:44;;;;;;;7.57;2.55;;;13.30;99.90;;;;;;4948226;28;20043;-76
2023/05/18 08:48:11;;;;;;;15.27;3.05;;;13.40;99.90;;;;;;4951135;29;20031;-75
2023/05/18 08:50:40;;;;;;;8.35;2.55;;;13.50;99.90;;;;;;4950485;28;20399;-75
2023/05/18 08:53:06;;;;;;;8.15;2.67;;;13.70;99.90;;;;;;4949798;29;20023;-75
2023/05/18 08:55:35;;;;;;;11.40;2.78;;;14.00;99.90;;;;;;4947082;28;20034;-75
2023/05/18 08:58:02;;;;;;;12.93;2.60;;;14.20;99.90;;;;;;4941124;29;20028;-76
2023/05/18 09:00:28;;;;;;;10.27;2.70;;;14.30;99.90;;;;;;4948955;29;20052;-76
2023/05/18 09:02:54;;;;;;;6.97;2.30;;;14.40;99.90;;;;;;4954270;28;20074;-75
2023/05/18 09:05:21;;;;;;;17.00;2.95;;;14.60;99.90;;;;;;4951309;28;20023;-76
2023/05/18 09:07:49;;;;;;;12.73;2.92;;;14.70;99.90;;;;;;4944331;29;20512;-76
2023/05/18 09:10:15;;;;;;;10.38;2.60;;;14.80;99.90;;;;;;4954287;28;20463;-75
2023/05/18 09:12:45;;;;;;;9.15;2.50;;;14.90;99.90;;;;;;4953211;29;20027;-75
2023/05/18 09:15:12;;;;;;;11.73;2.90;;;14.90;99.40;;;;;;4952582;29;20147;-76
2023/05/18 09:17:38;;;;;;;9.98;2.53;;;15.00;99.10;;;;;;4953513;28;20055;-76
2023/05/18 09:20:05;;;;;;;11.10;2.85;;;15.00;98.80;;;;;;4954043;28;20423;-73
2023/05/18 09:22:32;;;;;;;10.80;2.70;;;15.00;98.10;;;;;;4949600;28;20031;-76
2023/05/18 09:24:58;;;;;;;10.88;2.70;;;14.90;97.80;;;;;;4953880;28;20123;-77
2023/05/18 09:27:24;;;;;;;10.05;2.28;;;14.70;97.70;;;;;;4953711;29;20027;-77
2023/05/18 09:29:52;;;;;;;13.35;3.13;;;14.60;98.20;;;;;;4952769;29;20109;-75
2023/05/18 09:32:19;;;;;;;13.45;2.42;;;14.70;98.20;;;;;;4947949;29;20043;-75
2023/05/18 09:34:47;;;;;;;13.40;3.10;;;14.70;98.00;;;;;;4953835;28;20035;-75
2023/05/18 09:37:16;;;;;;;13.77;3.05;;;14.70;97.10;;;;;;4952288;29;20107;-75
2023/05/18 09:39:42;;;;;;;8.65;2.40;;;14.60;97.10;;;;;;4952730;29;20375;-75
2023/05/18 09:42:07;;;;;;;10.77;2.72;;;14.60;97.30;;;;;;4954163;28;20090;-77
2023/05/18 09:44:33;;;;;;;10.82;2.78;;;14.70;97.70;;;;;;4940936;28;20024;-76
2023/05/18 09:46:59;;;;;;;10.95;2.58;;;14.80;97.20;;;;;;4952812;28;20039;-76
2023/05/18 09:49:27;;;;;;;11.50;2.92;;;15.00;97.10;;;;;;4953490;28;20090;-76
2023/05/18 09:51:53;;;;;;;11.63;2.63;;;15.10;96.70;;;;;;4953166;28;20019;-75
2023/05/18 09:54:18;;;;;;;9.43;2.78;;;15.20;95.50;;;;;;4953874;29;20023;-76
2023/05/18 09:56:47;;;;;;;8.98;2.60;;;15.20;95.50;;;;;;4950724;29;20020;-76
2023/05/18 09:59:14;;;;;;;11.98;2.78;;;15.20;95.10;;;;;;4944024;29;20482;-76
2023/05/18 10:02:11;;;;;;;9.27;2.90;;;15.10;94.70;;;;;;4964851;28;20023;-76
2023/05/18 10:04:39;;;;;;;9.50;2.72;;;15.00;94.90;;;;;;4944717;29;20042;-76
2023/05/18 10:07:12;;;;;;;11.38;2.63;;;14.90;95.20;;;;;;4952783;28;20063;-76
2023/05/18 10:09:40;;;;;;;8.85;2.60;;;14.80;95.80;;;;;;4951339;29;20031;-75
2023/05/18 10:12:21;;;;;;;11.00;2.83;;;14.70;96.00;;;;;;4948274;29;20016;-76
2023/05/18 10:14:48;;;;;;;9.07;2.80;;;14.60;96.00;;;;;;4939042;29;20066;-76
2023/05/18 10:17:15;;;;;;;9.73;2.58;;;14.60;96.30;;;;;;4952917;29;20154;-76
2023/05/18 10:19:42;;;;;;;12.20;2.75;;;14.50;96.30;;;;;;4953078;28;20031;-76
2023/05/18 10:22:08;;;;;;;9.80;2.67;;;14.50;96.50;;;;;;4949947;29;20054;-76
2023/05/18 10:24:40;;;;;;;8.45;2.50;;;14.60;96.90;;;;;;4953209;29;20023;-76
2023/05/18 10:27:08;;;;;;;12.73;2.70;;;14.70;96.80;;;;;;4949292;28;20032;-76
2023/05/18 10:29:37;;;;;;;10.18;2.58;;;14.70;96.30;;;;;;4952934;29;20039;-76
2023/05/18 10:32:04;;;;;;;8.13;2.15;;;14.70;95.90;;;;;;4945825;28;20567;-76
2023/05/18 10:34:31;;;;;;;8.80;2.50;;;14.70;95.90;;;;;;4951231;29;20019;-76
2023/05/18 10:37:04;;;;;;;7.68;2.15;;;14.80;95.70;;;;;;4952617;29;20394;-76
2023/05/18 10:39:32;;;;;;;10.93;2.33;;;15.00;95.70;;;;;;4949214;28;20106;-76
2023/05/18 10:41:59;;;;;;;14.02;2.67;;;15.10;95.50;;;;;;4952058;28;20081;-75
2023/05/18 10:44:25;;;;;;;11.20;2.70;;;15.20;95.30;;;;;;4943284;29;20047;-75
2023/05/18 10:46:51;;;;;;;11.70;2.65;;;15.40;95.10;;;;;;4949856;29;20031;-76
2023/05/18 10:49:22;;;;;;;10.07;2.72;;;15.50;94.60;;;;;;4949473;28;20039;-75
2023/05/18 10:51:51;;;;;;;9.65;2.50;;;15.50;93.80;;;;;;4943318;29;20455;-75
2023/05/18 10:54:17;;;;;;;13.90;3.10;;;15.40;93.20;;;;;;4952561;28;20024;-75
2023/05/18 10:56:49;;;;;;;8.68;2.38;;;15.40;94.00;;;;;;4952613;28;20020;-76
2023/05/18 10:59:17;;;;;;;8.70;2.40;;;15.40;93.70;;;;;;4938269;28;20118;-75
2023/05/18 11:01:44;;;;;;;13.35;3.10;;;15.50;94.10;;;;;;4938008;29;20398;-76
2023/05/18 11:04:10;;;;;;;10.20;2.78;;;15.70;93.70;;;;;;4949122;29;20031;-76
2023/05/18 11:06:37;;;;;;;15.05;3.22;;;15.90;93.50;;;;;;4937446;29;20419;-76
2023/05/18 11:09:02;;;;;;;13.00;2.97;;;16.10;93.10;;;;;;4941953;28;20038;-75
2023/05/18 11:11:29;;;;;;;18.02;3.65;;;16.20;92.60;;;;;;4955238;28;20648;-76
2023/05/18 11:14:00;;;;;;;11.20;3.20;;;16.30;92.50;;;;;;4954156;28;20035;-75
2023/05/18 11:16:34;;;;;;;8.38;2.83;;;16.50;91.90;;;;;;4953692;28;20379;-75
2023/05/18 11:19:11;;;;;;;11.40;3.08;;;16.60;91.30;;;;;;4956312;28;20024;-75
2023/05/18 11:21:40;;;;;;;8.20;2.90;;;16.70;90.70;;;;;;4944814;29;20055;-76
2023/05/18 11:24:44;;;;;;;11.20;2.75;;;16.70;90.20;;;;;;4956199;28;20074;-76
2023/05/18 11:27:15;;;;;;;11.60;2.90;;;16.70;88.80;;;;;;4948736;29;20110;-76
2023/05/18 11:29:43;;;;;;;9.82;3.03;;;16.70;87.40;;;;;;4955837;28;20028;-75
2023/05/18 11:32:26;;;;;;;12.15;3.20;;;16.70;87.30;;;;;;4951412;29;20028;-76
2023/05/18 11:34:53;;;;;;;12.70;3.33;;;16.80;87.70;;;;;;4953242;29;20359;-76
2023/05/18 11:37:45;;;;;;;10.50;3.55;;;16.90;87.10;;;;;;4954137;28;20032;-76
2023/05/18 11:40:12;;;;;;;9.50;3.17;;;16.80;85.40;;;;;;4943998;29;20070;-76
2023/05/18 11:42:38;;;;;;;10.57;3.58;;;16.80;86.80;;;;;;4951622;28;20078;-76
2023/05/18 11:45:11;;;;;;;9.15;2.85;;;16.80;85.40;;;;;;4950638;28;20447;-76
2023/05/18 11:47:41;;;;;;;14.38;3.45;;;16.70;85.60;;;;;;4949560;28;20023;-76
2023/05/18 11:50:09;;;;;;;8.85;2.97;;;16.80;86.40;;;;;;4954471;29;20035;-76
2023/05/18 11:52:48;;;;;;;14.23;3.38;;;16.80;85.60;;;;;;4949384;29;20051;-76
2023/05/18 11:55:15;;;;;;;10.48;3.05;;;16.80;83.90;;;;;;4944902;29;20510;-76
2023/05/18 11:57:44;;;;;;;8.80;2.90;;;16.80;86.30;;;;;;4953776;29;20520;-76
2023/05/18 12:00:11;;;;;;;10.18;3.25;;;17.00;85.90;;;;;;4948107;28;20062;-75
2023/05/18 12:02:37;;;;;;;10.88;3.53;;;17.10;85.70;;;;;;4951076;28;20024;-75
2023/05/18 12:05:07;;;;;;;12.20;3.10;;;17.20;84.40;;;;;;4949331;29;20058;-76
2023/05/18 12:07:34;;;;;;;6.65;3.22;;;17.30;85.00;;;;;;4955271;29;20038;-75
2023/05/18 12:10:20;;;;;;;12.73;3.25;;;17.30;83.40;;;;;;4955007;28;20020;-75
2023/05/18 12:12:52;;;;;;;13.45;3.38;;;17.40;84.10;;;;;;4937235;28;20039;-75
2023/05/18 12:15:21;;;;;;;10.23;2.83;;;17.40;83.50;;;;;;4948643;29;20418;-76
2023/05/18 12:17:49;;;;;;;13.40;3.30;;;17.50;82.80;;;;;;4951062;29;20059;-76
2023/05/18 12:20:26;;;;;;;10.02;2.92;;;17.60;82.40;;;;;;4951888;28;20051;-76
2023/05/18 12:22:52;;;;;;;15.73;3.47;;;17.70;81.10;;;;;;4955465;28;20748;-76
2023/05/18 12:25:20;;;;;;;9.00;3.05;;;17.90;80.70;;;;;;4947164;28;20042;-76
2023/05/18 12:27:49;;;;;;;9.27;3.30;;;18.00;80.90;;;;;;4944964;29;20028;-76
2023/05/18 12:30:14;;;;;;;12.73;3.35;;;18.20;79.80;;;;;;4951813;28;20028;-76
2023/05/18 12:32:56;;;;;;;8.20;2.88;;;18.20;78.30;;;;;;4936778;29;20442;-76
2023/05/18 12:35:26;;;;;;;9.95;3.08;;;18.40;77.10;;;;;;4953672;28;20050;-76
2023/05/18 12:37:56;;;;;;;14.90;3.65;;;18.40;76.10;;;;;;4950387;28;20028;-76
2023/05/18 12:40:23;;;;;;;10.32;3.42;;;18.40;74.60;;;;;;4947382;29;20074;-76
2023/05/18 12:42:58;;;;;;;10.18;3.35;;;18.50;74.90;;;;;;4950783;28;20023;-76
2023/05/18 12:45:30;;;;;;;;;;;18.70;75.10;;;;;;4954028;29;20097;-77
2023/05/18 12:48:06;;;;;;;9.60;2.80;;;18.70;74.10;;;;;;4949700;29;19964;-76
2023/05/18 12:50:32;;;;;;;12.50;3.05;;;18.80;73.40;;;;;;4954654;28;20023;-76